Time,TemperatureF,DewpointF,PressureIn,WindDirection,WindDirectionDegrees,WindSpeedMPH,WindSpeedGustMPH,Humidity,HourlyPrecipIn,Conditions,Clouds,dailyrainin,SoftwareType,DateUTC
2013-01-25 00:28:00,13.7,4.1,26.96,WSW,257,0.0,0.0,65,0.00,,,-99.99,VWS V12.07,2013-01-25 05:28:00,
2013-01-25 00:58:00,13.5,3.9,26.96,ESE,115,0.0,0.0,65,0.00,,,-99.99,VWS V12.07,2013-01-25 05:58:00,
2013-01-25 01:28:00,13.4,3.8,26.96,SW,214,0.0,0.0,65,0.00,,,-99.99,VWS V12.07,2013-01-25 06:28:00,
2013-01-25 01:58:00,13.5,3.3,26.97,West,264,0.0,0.0,63,0.00,,,-99.99,VWS V12.07,2013-01-25 06:58:00,
2013-01-25 02:28:00,13.5,3.3,26.96,NW,326,0.0,0.0,63,0.00,,,-99.99,VWS V12.07,2013-01-25 07:28:00,
2013-01-25 02:58:00,13.5,3.9,26.95,WSW,255,0.0,0.0,65,0.00,,,-99.99,VWS V12.07,2013-01-25 07:58:00,
2013-01-25 03:28:00,13.5,3.6,26.94,WNW,284,0.0,0.0,64,0.00,,,-99.99,VWS V12.07,2013-01-25 08:28:00,
2013-01-25 03:58:00,13.4,3.2,26.93,NNW,344,0.0,0.0,63,0.00,,,-99.99,VWS V12.07,2013-01-25 08:58:00,
2013-01-25 04:28:00,13.2,2.6,26.93,NNW,344,0.0,0.0,62,0.00,,,-99.99,VWS V12.07,2013-01-25 09:28:00,
2013-01-25 04:58:00,13.4,3.2,26.91,WSW,252,0.0,0.0,63,0.00,,,-99.99,VWS V12.07,2013-01-25 09:58:00,
2013-01-25 05:28:00,13.5,2.9,26.91,North,358,0.0,0.0,62,0.00,,,-99.99,VWS V12.07,2013-01-25 10:28:00,
2013-01-25 05:58:00,13.8,3.5,26.90,North,353,0.0,0.0,63,0.00,,,-99.99,VWS V12.07,2013-01-25 10:58:00,
2013-01-25 06:28:00,14.2,3.9,26.89,NW,319,0.0,0.0,63,0.00,,,-99.99,VWS V12.07,2013-01-25 11:28:00,
2013-01-25 06:58:00,14.3,4.4,26.88,NNW,334,0.0,0.0,64,0.00,,,-99.99,VWS V12.07,2013-01-25 11:58:00,
2013-01-25 07:28:00,14.7,4.4,26.88,ESE,105,0.0,0.0,63,0.00,,,-99.99,VWS V12.07,2013-01-25 12:28:00,
2013-01-25 07:58:00,13.8,5.5,26.88,SE,140,0.0,0.0,69,0.00,,,-99.99,VWS V12.07,2013-01-25 12:58:00,
2013-01-25 08:28:00,13.2,8.2,26.87,North,0,0.0,0.0,80,0.00,,,-99.99,VWS V12.07,2013-01-25 13:28:00,
2013-01-25 08:58:00,12.9,9.2,26.86,NNW,342,0.0,0.0,85,0.00,,,-99.99,VWS V12.07,2013-01-25 13:58:00,
2013-01-25 09:28:00,12.7,9.6,26.86,South,181,0.0,0.0,87,0.00,,,-99.99,VWS V12.07,2013-01-25 14:28:00,
2013-01-25 09:58:00,13.5,10.6,26.85,South,175,0.0,0.0,88,0.00,,,-99.99,VWS V12.07,2013-01-25 14:58:00,
2013-01-25 10:27:00,14.0,10.3,26.83,SE,146,0.0,0.0,85,0.00,,,-99.99,VWS V12.07,2013-01-25 15:27:00,
2013-01-25 10:58:00,14.2,10.3,26.81,SW,216,0.0,0.0,84,0.00,,,-99.99,VWS V12.07,2013-01-25 15:58:00,
2013-01-25 11:28:00,14.5,10.3,26.80,SE,144,0.0,0.0,83,0.00,,,-99.99,VWS V12.07,2013-01-25 16:28:00,
2013-01-25 11:58:00,14.8,11.4,26.77,SE,143,0.0,0.0,86,0.00,,,-99.99,VWS V12.07,2013-01-25 16:58:00,
2013-01-25 12:27:00,14.7,11.8,26.76,ESE,110,0.0,0.0,88,0.00,,,-99.99,VWS V12.07,2013-01-25 17:27:00,
2013-01-25 12:58:00,15.1,12.4,26.73,East,88,0.0,0.0,89,0.00,,,-99.99,VWS V12.07,2013-01-25 17:58:00,
2013-01-25 13:28:00,15.2,13.3,26.71,SW,218,0.0,0.0,92,0.00,,,-99.99,VWS V12.07,2013-01-25 18:28:00,
2013-01-25 13:58:00,15.9,14.2,26.69,SW,223,0.0,0.0,93,0.00,,,-99.99,VWS V12.07,2013-01-25 18:58:00,
2013-01-25 14:27:00,16.4,14.7,26.68,NE,53,0.0,0.0,93,0.00,,,-99.99,VWS V12.07,2013-01-25 19:27:00,
2013-01-25 14:58:00,18.0,16.8,26.66,ENE,57,0.0,0.0,95,0.00,,,-99.99,VWS V12.07,2013-01-25 19:58:00,
2013-01-25 15:28:00,17.4,16.2,26.65,SE,126,0.0,0.0,95,0.00,,,-99.99,VWS V12.07,2013-01-25 20:28:00,
2013-01-25 15:58:00,16.9,15.7,26.65,ESE,107,0.0,0.0,95,0.00,,,-99.99,VWS V12.07,2013-01-25 20:58:00,
2013-01-25 16:28:00,17.6,16.7,26.64,ENE,65,0.0,0.0,96,0.00,,,-99.99,VWS V12.07,2013-01-25 21:28:00,
2013-01-25 17:29:00,31.8,31.8,26.63,SW,214,0.0,0.0,100,0.00,,,-99.99,VWS V12.07,2013-01-25 22:29:00,
2013-01-25 18:27:00,32.7,32.7,26.63,SW,226,0.0,0.0,100,0.00,,,-99.99,VWS V12.07,2013-01-25 23:27:00,
2013-01-25 18:58:00,32.9,32.9,26.64,SSW,212,0.0,0.0,100,0.00,,,-99.99,VWS V12.07,2013-01-25 23:58:00,
2013-01-25 19:28:00,32.4,32.4,26.65,WSW,241,0.0,0.0,100,0.00,,,-99.99,VWS V12.07,2013-01-26 00:28:00,
2013-01-25 19:58:00,32.9,32.9,26.64,WSW,255,0.0,0.0,100,0.00,,,-99.99,VWS V12.07,2013-01-26 00:58:00,
2013-01-25 20:27:00,32.6,32.6,26.63,SW,226,0.0,0.0,100,0.00,,,-99.99,VWS V12.07,2013-01-26 01:27:00,
2013-01-25 20:58:00,33.1,33.1,26.64,SW,229,0.0,54.0,100,0.00,,,-99.99,VWS V12.07,2013-01-26 01:58:00,
2013-01-25 21:27:00,33.2,33.2,26.64,SSW,210,0.0,0.0,100,0.00,,,-99.99,VWS V12.07,2013-01-26 02:27:00,
2013-01-25 21:58:00,33.1,33.1,26.63,SW,224,0.0,0.0,100,0.00,,,-99.99,VWS V12.07,2013-01-26 02:58:00,
2013-01-25 22:27:00,32.4,32.4,26.64,SSW,210,17.0,80.0,100,0.00,,,-99.99,VWS V12.07,2013-01-26 03:27:00,
2013-01-25 22:58:00,31.8,31.8,26.65,West,268,6.0,26.0,100,0.00,,,-99.99,VWS V12.07,2013-01-26 03:58:00,
2013-01-25 23:28:00,31.5,31.5,26.65,SSW,210,10.0,22.0,100,0.00,,,-99.99,VWS V12.07,2013-01-26 04:28:00,
2013-01-25 23:58:00,31.0,31.0,26.65,SSW,193,12.0,30.0,100,0.00,,,-99.99,VWS V12.07,2013-01-26 04:58:00,